createdAt,value
2023-04-28T00:02:40.711Z,80.50
2023-04-28T00:06:04.868Z,80.70
2023-04-28T00:09:28.514Z,80.60
2023-04-28T00:12:53.914Z,80.80
2023-04-28T00:16:17.536Z,80.30
2023-04-28T00:19:41.212Z,80.40
2023-04-28T00:23:04.728Z,81.20
2023-04-28T00:26:28.335Z,81.10
2023-04-28T00:29:53.357Z,81.30
2023-04-28T00:33:16.979Z,81.20
2023-04-28T00:36:40.566Z,81.50
2023-04-28T00:40:04.315Z,81.70
2023-04-28T00:43:28.039Z,81.50
2023-04-28T00:46:53.081Z,81.70
2023-04-28T00:50:18.128Z,81.90
2023-04-28T00:53:44.145Z,82.80
2023-04-28T00:57:08.565Z,83.00
2023-04-28T01:00:32.106Z,83.40
2023-04-28T01:03:57.325Z,83.30
2023-04-28T01:07:21.511Z,83.70
2023-04-28T01:10:45.658Z,83.20
2023-04-28T01:14:19.958Z,83.70
2023-04-28T01:17:44.242Z,83.70
2023-04-28T01:21:09.280Z,84.00
2023-04-28T01:24:34.403Z,83.70
2023-04-28T01:28:01.652Z,84.00
2023-04-28T01:31:25.422Z,84.00
2023-04-28T01:34:49.009Z,84.30
2023-04-28T01:38:12.589Z,84.30
2023-04-28T01:41:37.595Z,84.80
2023-04-28T01:45:01.260Z,84.70
2023-04-28T01:48:24.835Z,85.00
2023-04-28T01:51:48.382Z,85.70
2023-04-28T01:55:11.906Z,85.40
2023-04-28T01:58:37.553Z,85.50
2023-04-28T02:02:02.164Z,85.50
2023-04-28T02:05:26.701Z,86.20
2023-04-28T02:08:50.637Z,86.10
2023-04-28T02:12:14.220Z,86.10
2023-04-28T02:15:42.689Z,86.50
2023-04-28T02:19:06.564Z,86.50
2023-04-28T02:22:30.283Z,86.30
2023-04-28T02:26:03.552Z,86.20
2023-04-28T02:29:27.913Z,87.30
2023-04-28T02:32:52.920Z,86.80
2023-04-28T02:36:16.485Z,87.20
2023-04-28T02:39:40.083Z,87.50
2023-04-28T02:43:03.604Z,87.50
2023-04-28T02:46:27.165Z,87.70
2023-04-28T02:49:52.247Z,87.90
2023-04-28T02:53:19.277Z,88.10
2023-04-28T02:56:42.901Z,88.20
2023-04-28T03:00:08.392Z,88.20
2023-04-28T03:03:39.779Z,88.30
2023-04-28T03:07:04.940Z,88.40
2023-04-28T03:10:28.497Z,88.70
2023-04-28T03:13:52.120Z,88.90
2023-04-28T03:17:15.752Z,89.30
2023-04-28T03:20:39.474Z,89.50
2023-04-28T03:24:05.695Z,90.00
2023-04-28T03:27:30.151Z,89.60
2023-04-28T03:30:54.392Z,89.30
2023-04-28T03:34:18.332Z,89.50
2023-04-28T03:37:42.555Z,89.80
2023-04-28T03:41:07.587Z,90.10
2023-04-28T03:45:11.289Z,90.00
2023-04-28T03:48:35.418Z,90.10
2023-04-28T03:51:59.020Z,90.00
2023-04-28T03:55:23.158Z,90.30
2023-04-28T03:58:49.480Z,90.30
2023-04-28T04:02:13.748Z,90.50
2023-04-28T04:05:41.404Z,90.40
2023-04-28T04:09:08.281Z,90.50
2023-04-28T04:12:32.905Z,90.50
2023-04-28T04:15:59.088Z,90.80
2023-04-28T04:19:26.286Z,90.50
2023-04-28T04:22:51.035Z,90.60
2023-04-28T04:26:14.806Z,90.70
2023-04-28T04:29:38.726Z,90.90
2023-04-28T04:33:09.818Z,91.20
2023-04-28T04:36:33.937Z,91.30
2023-04-28T04:39:57.599Z,91.30
2023-04-28T04:43:21.351Z,91.70
2023-04-28T04:46:48.088Z,91.80
2023-04-28T04:50:13.940Z,92.20
2023-04-28T04:53:37.657Z,92.50
2023-04-28T04:57:01.775Z,93.00
2023-04-28T05:00:54.682Z,93.50
2023-04-28T05:04:18.760Z,93.50
2023-04-28T05:07:44.359Z,93.70
2023-04-28T05:11:08.044Z,93.80
2023-04-28T05:14:31.879Z,93.70
2023-04-28T05:17:55.684Z,93.50
2023-04-28T05:21:19.505Z,93.70
2023-04-28T05:24:44.444Z,93.80
2023-04-28T05:28:10.987Z,94.00
2023-04-28T05:31:34.924Z,93.30
2023-04-28T05:34:58.663Z,92.70
2023-04-28T05:38:23.436Z,92.40
2023-04-28T05:41:49.549Z,92.10
2023-04-28T05:45:14.206Z,91.80
2023-04-28T05:48:38.499Z,91.70
2023-04-28T05:52:02.148Z,91.80
2023-04-28T05:55:25.934Z,91.70
2023-04-28T05:58:51.628Z,91.80
2023-04-28T06:02:15.258Z,92.10
2023-04-28T06:05:39.857Z,92.20
2023-04-28T06:09:04.825Z,92.40
2023-04-28T06:12:32.131Z,92.40
2023-04-28T06:15:57.357Z,93.40
2023-04-28T06:19:21.084Z,93.50
2023-04-28T06:22:46.176Z,93.90
2023-04-28T06:26:10.110Z,93.80
2023-04-28T06:29:36.019Z,93.40
2023-04-28T06:33:01.137Z,93.50
2023-04-28T06:36:24.765Z,93.40
2023-04-28T06:39:48.366Z,94.10
2023-04-28T06:43:13.030Z,93.50
2023-04-28T06:46:42.110Z,93.80
2023-04-28T06:50:09.627Z,93.90
2023-04-28T06:53:33.754Z,93.60
2023-04-28T06:56:57.359Z,93.30
2023-04-28T07:00:21.999Z,93.30
2023-04-28T07:03:46.576Z,93.10
2023-04-28T07:07:13.050Z,93.50
2023-04-28T07:10:36.818Z,93.50
2023-04-28T07:14:00.452Z,93.40
2023-04-28T07:17:24.157Z,93.50
2023-04-28T07:20:48.191Z,93.60
2023-04-28T07:24:13.279Z,93.70
2023-04-28T07:27:36.892Z,93.90
2023-04-28T07:31:01.215Z,93.60
2023-04-28T07:34:24.945Z,93.30
2023-04-28T07:37:48.535Z,93.50
2023-04-28T07:41:13.793Z,94.30
2023-04-28T07:44:37.582Z,94.10
2023-04-28T07:48:01.378Z,94.50
2023-04-28T07:51:24.971Z,94.40
2023-04-28T07:54:48.895Z,94.80
2023-04-28T07:58:14.190Z,96.00
2023-04-28T08:01:37.917Z,96.20
2023-04-28T08:05:02.616Z,96.70
2023-04-28T08:08:26.573Z,96.80
2023-04-28T08:11:50.262Z,96.70
2023-04-28T08:15:16.691Z,96.40
2023-04-28T08:18:41.962Z,96.60
2023-04-28T08:22:07.226Z,96.00
2023-04-28T08:25:30.990Z,95.80
2023-04-28T08:28:54.570Z,95.90
2023-04-28T08:32:19.806Z,95.80
2023-04-28T08:35:43.659Z,95.10
2023-04-28T08:39:08.551Z,94.80
2023-04-28T08:42:32.498Z,94.90
2023-04-28T08:45:56.292Z,95.00
2023-04-28T08:49:29.001Z,95.20
2023-04-28T08:52:54.482Z,95.10
2023-04-28T08:56:19.929Z,95.40
2023-04-28T08:59:43.510Z,95.20
2023-04-28T09:03:09.030Z,94.70
2023-04-28T09:06:37.248Z,95.00
2023-04-28T09:10:19.409Z,95.00
2023-04-28T09:13:43.115Z,95.30
2023-04-28T09:17:13.149Z,95.30
2023-04-28T09:20:37.615Z,95.40
2023-04-28T09:24:02.531Z,95.80
2023-04-28T09:27:29.101Z,95.80
2023-04-28T09:30:52.927Z,96.40
2023-04-28T09:34:16.735Z,96.70
2023-04-28T09:37:40.650Z,97.30
2023-04-28T09:41:05.839Z,98.60
2023-04-28T09:44:29.683Z,99.30
2023-04-28T09:47:53.696Z,99.90
2023-04-28T09:51:22.271Z,99.90
2023-04-28T09:54:47.437Z,99.90
2023-04-28T09:58:15.437Z,99.90
2023-04-28T10:01:41.337Z,99.90
2023-04-28T10:05:08.953Z,99.90
2023-04-28T10:08:32.721Z,99.90
2023-04-28T10:11:56.479Z,99.90
2023-04-28T10:15:22.216Z,99.90
2023-04-28T10:18:47.620Z,99.90
2023-04-28T10:22:29.606Z,99.90
2023-04-28T10:25:58.109Z,99.90
2023-04-28T10:29:25.793Z,99.90
2023-04-28T10:33:27.302Z,99.90
2023-04-28T10:36:52.682Z,99.90
2023-04-28T10:40:35.047Z,99.90
2023-04-28T10:43:58.752Z,99.90
2023-04-28T10:47:24.412Z,99.90
2023-04-28T10:51:24.362Z,99.90
2023-04-28T10:55:36.160Z,99.90
2023-04-28T10:59:00.549Z,99.90
2023-04-28T11:02:45.008Z,99.90
2023-04-28T11:06:26.078Z,99.90
2023-04-28T11:09:50.166Z,99.90
2023-04-28T11:13:33.895Z,99.90
2023-04-28T11:16:59.820Z,99.90
2023-04-28T11:20:26.235Z,99.90
2023-04-28T11:23:51.770Z,99.90
2023-04-28T11:27:24.783Z,99.90
2023-04-28T11:30:48.822Z,99.90
2023-04-28T11:34:14.393Z,99.90
2023-04-28T11:37:38.015Z,99.90
2023-04-28T11:41:03.980Z,99.90
2023-04-28T11:44:29.026Z,99.90
2023-04-28T11:47:52.682Z,99.90
2023-04-28T11:51:33.566Z,99.90
2023-04-28T11:54:59.133Z,99.90
2023-04-28T11:58:25.231Z,99.90
2023-04-28T12:01:51.788Z,99.90
2023-04-28T12:05:15.570Z,99.90
2023-04-28T12:08:39.271Z,99.90
2023-04-28T12:12:04.881Z,99.90
2023-04-28T12:15:41.476Z,99.90
2023-04-28T12:19:07.935Z,99.90
2023-04-28T12:22:31.647Z,99.90
2023-04-28T12:25:55.423Z,99.90
2023-04-28T12:29:41.765Z,99.90
2023-04-28T12:33:07.529Z,99.90
2023-04-28T12:36:32.308Z,99.90
2023-04-28T12:39:57.233Z,99.90
2023-04-28T12:43:23.136Z,99.90
2023-04-28T12:46:48.119Z,99.90
2023-04-28T12:50:13.564Z,99.90
2023-04-28T12:53:37.184Z,99.90
2023-04-28T12:57:00.804Z,99.80
2023-04-28T13:00:25.167Z,99.80
2023-04-28T13:03:51.120Z,99.90
2023-04-28T13:07:17.329Z,99.90
2023-04-28T13:10:41.974Z,99.90
2023-04-28T13:14:05.775Z,99.70
2023-04-28T13:17:29.685Z,99.10
2023-04-28T13:20:53.531Z,98.50
2023-04-28T13:24:18.549Z,98.50
2023-04-28T13:27:43.428Z,99.30
2023-04-28T13:31:07.146Z,99.90
2023-04-28T13:34:31.246Z,99.90
2023-04-28T13:38:01.558Z,99.90
2023-04-28T13:41:27.160Z,99.90
2023-04-28T13:44:51.456Z,99.90
2023-04-28T13:48:15.118Z,99.90
2023-04-28T13:51:38.862Z,99.90
2023-04-28T13:55:02.544Z,99.90
2023-04-28T13:58:27.915Z,99.90
2023-04-28T14:01:51.694Z,99.90
2023-04-28T14:05:16.740Z,99.90
2023-04-28T14:08:40.368Z,99.90
2023-04-28T14:12:05.415Z,99.90
2023-04-28T14:15:31.206Z,99.90
2023-04-28T14:18:55.567Z,99.90
2023-04-28T14:22:19.592Z,99.90
2023-04-28T14:25:43.430Z,99.90
2023-04-28T14:29:07.134Z,99.90
2023-04-28T14:32:32.251Z,99.90
2023-04-28T14:35:55.999Z,99.90
2023-04-28T14:39:19.651Z,99.90
2023-04-28T14:42:44.025Z,99.90
2023-04-28T14:46:07.887Z,99.90
2023-04-28T14:49:32.972Z,99.90
2023-04-28T14:52:56.635Z,99.90
2023-04-28T14:56:20.718Z,99.90
2023-04-28T14:59:44.330Z,99.90
2023-04-28T15:03:08.056Z,99.90
2023-04-28T15:06:34.382Z,99.90
2023-04-28T15:09:58.631Z,99.90
2023-04-28T15:13:25.117Z,99.90
2023-04-28T15:16:49.002Z,99.90
2023-04-28T15:20:12.914Z,99.90
2023-04-28T15:23:37.904Z,99.90
2023-04-28T15:27:03.907Z,99.90
2023-04-28T15:30:27.678Z,99.90
2023-04-28T15:33:51.418Z,99.90
2023-04-28T15:37:43.311Z,99.90
2023-04-28T15:41:08.609Z,99.90
2023-04-28T15:44:32.228Z,99.90
2023-04-28T15:47:56.327Z,99.90
2023-04-28T15:51:20.050Z,99.90
2023-04-28T15:54:44.343Z,99.90
2023-04-28T15:58:10.790Z,99.90
2023-04-28T16:01:34.444Z,99.90
2023-04-28T16:04:58.611Z,99.90
2023-04-28T16:08:24.124Z,99.90
2023-04-28T16:11:48.525Z,99.90
2023-04-28T16:15:14.708Z,99.90
2023-04-28T16:18:38.478Z,99.90
2023-04-28T16:22:02.383Z,99.90
2023-04-28T16:25:26.255Z,99.90
2023-04-28T16:28:49.914Z,99.90
2023-04-28T16:32:15.479Z,99.90
2023-04-28T16:35:39.106Z,99.90
2023-04-28T16:39:02.914Z,99.90
2023-04-28T16:42:26.777Z,99.90
2023-04-28T16:45:50.394Z,99.90
2023-04-28T16:49:15.710Z,99.90
2023-04-28T16:52:39.510Z,99.90
2023-04-28T16:56:03.091Z,99.90
2023-04-28T16:59:29.488Z,99.90
2023-04-28T17:02:53.238Z,99.90
2023-04-28T17:06:18.203Z,99.90
2023-04-28T17:09:41.764Z,99.90
2023-04-28T17:13:05.447Z,99.90
2023-04-28T17:16:32.254Z,99.90
2023-04-28T17:19:56.944Z,99.90
2023-04-28T17:23:21.898Z,99.90
2023-04-28T17:26:45.729Z,99.90
2023-04-28T17:30:11.509Z,99.90
2023-04-28T17:33:35.383Z,99.90
2023-04-28T17:36:59.093Z,99.90
2023-04-28T17:40:24.374Z,99.90
2023-04-28T17:43:48.132Z,99.90
2023-04-28T17:47:11.839Z,99.90
2023-04-28T17:50:35.448Z,99.90
2023-04-28T17:53:59.186Z,99.90
2023-04-28T17:57:24.144Z,99.90
2023-04-28T18:00:47.909Z,99.90
2023-04-28T18:04:11.770Z,99.90
2023-04-28T18:07:35.414Z,99.90
2023-04-28T18:10:59.828Z,99.90
2023-04-28T18:14:25.757Z,99.90
2023-04-28T18:17:49.621Z,99.90
2023-04-28T18:21:13.293Z,99.90
2023-04-28T18:24:37.434Z,99.90
2023-04-28T18:28:01.088Z,99.90
2023-04-28T18:31:26.746Z,99.90
2023-04-28T18:34:50.674Z,99.90
2023-04-28T18:38:14.549Z,99.90
2023-04-28T18:41:39.403Z,99.90
2023-04-28T18:45:04.315Z,99.90
2023-04-28T18:48:29.296Z,99.90
2023-04-28T18:51:52.954Z,99.90
2023-04-28T18:55:17.112Z,99.90
2023-04-28T18:58:41.603Z,99.90
2023-04-28T19:02:05.396Z,99.90
2023-04-28T19:05:31.428Z,99.90
2023-04-28T19:08:55.188Z,99.90
2023-04-28T19:12:19.163Z,99.90
2023-04-28T19:15:42.802Z,99.90
2023-04-28T19:19:08.945Z,99.90
2023-04-28T19:22:36.710Z,99.90
2023-04-28T19:26:00.620Z,99.90
2023-04-28T19:29:24.314Z,99.90
2023-04-28T19:32:47.939Z,99.90
2023-04-28T19:36:11.528Z,99.90
2023-04-28T19:39:37.105Z,99.90
2023-04-28T19:43:01.058Z,99.90
2023-04-28T19:46:24.843Z,99.90
2023-04-28T19:53:12.877Z,99.90
2023-04-28T19:56:38.056Z,99.90
2023-04-28T20:00:01.697Z,99.90
2023-04-28T20:03:32.011Z,99.90
2023-04-28T20:06:55.895Z,99.90
2023-04-28T20:10:20.137Z,99.90
2023-04-28T20:13:45.160Z,99.90
2023-04-28T20:17:09.714Z,99.90
2023-04-28T20:20:33.388Z,99.90
2023-04-28T20:23:57.158Z,99.90
2023-04-28T20:27:21.861Z,99.90
2023-04-28T20:30:46.981Z,99.90
2023-04-28T20:34:10.642Z,99.90
2023-04-28T20:37:34.298Z,99.90
2023-04-28T20:40:59.222Z,99.90
2023-04-28T20:44:22.870Z,99.90
2023-04-28T20:47:47.887Z,99.90
2023-04-28T20:51:11.816Z,99.90
2023-04-28T20:54:36.143Z,99.90
2023-04-28T20:57:59.937Z,99.90
2023-04-28T21:01:23.821Z,99.90
2023-04-28T21:04:50.907Z,99.90
2023-04-28T21:08:14.638Z,99.90
2023-04-28T21:11:38.183Z,99.90
2023-04-28T21:15:01.795Z,99.90
2023-04-28T21:18:25.467Z,99.90
2023-04-28T21:21:51.013Z,99.90
2023-04-28T21:25:14.718Z,99.90
2023-04-28T21:28:39.790Z,99.90
2023-04-28T21:32:04.048Z,99.90
2023-04-28T21:35:28.679Z,99.90
2023-04-28T21:38:53.689Z,99.90
2023-04-28T21:42:17.263Z,99.90
2023-04-28T21:45:40.909Z,99.90
2023-04-28T21:49:04.494Z,99.90
2023-04-28T21:52:28.112Z,99.90
2023-04-28T21:55:53.096Z,99.90
2023-04-28T21:59:17.946Z,99.90
2023-04-28T22:02:42.950Z,99.90
2023-04-28T22:06:06.863Z,99.90
2023-04-28T22:09:30.547Z,99.90
2023-04-28T22:12:55.575Z,99.90
2023-04-28T22:16:19.429Z,99.90
2023-04-28T22:19:43.144Z,99.90
2023-04-28T22:23:06.892Z,99.90
2023-04-28T22:26:30.540Z,99.90
2023-04-28T22:29:55.560Z,99.90
2023-04-28T22:33:21.137Z,99.90
2023-04-28T22:36:45.008Z,99.90
2023-04-28T22:40:09.784Z,99.90
2023-04-28T22:43:33.415Z,99.90
2023-04-28T22:46:58.698Z,99.90
2023-04-28T22:50:22.556Z,99.90
2023-04-28T22:53:47.108Z,99.90
2023-04-28T22:57:10.984Z,99.90
2023-04-28T23:00:35.700Z,99.90
2023-04-28T23:04:00.908Z,99.90
2023-04-28T23:07:24.753Z,99.90
2023-04-28T23:10:48.691Z,99.90
2023-04-28T23:14:12.295Z,99.90
2023-04-28T23:17:36.013Z,99.90
2023-04-28T23:21:01.095Z,99.90
2023-04-28T23:24:26.521Z,99.90
2023-04-28T23:27:50.221Z,99.90
2023-04-28T23:31:14.192Z,99.90
2023-04-28T23:34:41.588Z,99.90
2023-04-28T23:38:07.002Z,99.90
2023-04-28T23:41:30.652Z,99.90
2023-04-28T23:44:54.405Z,99.90
2023-04-28T23:48:18.529Z,99.90
2023-04-28T23:51:42.344Z,99.90
2023-04-28T23:55:08.536Z,99.90
2023-04-28T23:58:32.572Z,99.90
